RJKN(METAR)
10/16 18:00
RJKN 160900Z 07014KT 9999 RA FEW015 SCT035 BKN050 25/23 Q1015 RMK
A2997=
戻る
トップページへ戻る
IMOC Co,.Ltd.